sensor_id;sensor_type;location;lat;lon;timestamp;pressure;altitude;pressure_sealevel;temperature;humidity
28935;BME280;16044;52.726;-2.108;2022-12-29T00:00:18;97829.84;;;7.88;87.64
28935;BME280;16044;52.726;-2.108;2022-12-29T00:02:45;97828.78;;;7.89;87.86
28935;BME280;16044;52.726;-2.108;2022-12-29T00:05:13;97831.09;;;7.86;88.43
28935;BME280;16044;52.726;-2.108;2022-12-29T00:07:39;97838.59;;;7.84;88.90
28935;BME280;16044;52.726;-2.108;2022-12-29T00:10:07;97835.53;;;7.80;89.05
28935;BME280;16044;52.726;-2.108;2022-12-29T00:12:34;97845.28;;;7.81;88.86
28935;BME280;16044;52.726;-2.108;2022-12-29T00:15:21;97847.38;;;7.79;89.02
28935;BME280;16044;52.726;-2.108;2022-12-29T00:18:06;97842.38;;;7.83;89.18
28935;BME280;16044;52.726;-2.108;2022-12-29T00:20:35;97845.88;;;7.83;89.22
28935;BME280;16044;52.726;-2.108;2022-12-29T00:23:21;97858.75;;;7.81;89.28
28935;BME280;16044;52.726;-2.108;2022-12-29T00:26:25;97849.47;;;7.77;89.05
28935;BME280;16044;52.726;-2.108;2022-12-29T00:29:10;97859.41;;;7.76;89.50
28935;BME280;16044;52.726;-2.108;2022-12-29T00:31:56;97862.50;;;7.80;89.16
28935;BME280;16044;52.726;-2.108;2022-12-29T00:34:43;97865.66;;;7.77;89.27
28935;BME280;16044;52.726;-2.108;2022-12-29T00:37:28;97857.69;;;7.82;88.99
28935;BME280;16044;52.726;-2.108;2022-12-29T00:40:14;97858.28;;;7.84;88.22
28935;BME280;16044;52.726;-2.108;2022-12-29T00:42:59;97858.06;;;7.86;88.35
28935;BME280;16044;52.726;-2.108;2022-12-29T00:45:45;97851.44;;;7.88;88.26
28935;BME280;16044;52.726;-2.108;2022-12-29T00:48:11;97855.00;;;7.82;88.29
28935;BME280;16044;52.726;-2.108;2022-12-29T00:50:39;97855.16;;;7.87;87.89
28935;BME280;16044;52.726;-2.108;2022-12-29T00:53:06;97857.16;;;7.92;87.87
28935;BME280;16044;52.726;-2.108;2022-12-29T00:55:36;97849.31;;;7.90;88.16
28935;BME280;16044;52.726;-2.108;2022-12-29T00:58:04;97856.94;;;7.93;88.21
28935;BME280;16044;52.726;-2.108;2022-12-29T01:00:31;97853.06;;;7.89;87.80
28935;BME280;16044;52.726;-2.108;2022-12-29T01:02:58;97852.63;;;7.92;87.42
28935;BME280;16044;52.726;-2.108;2022-12-29T01:05:25;97834.41;;;7.88;87.21
28935;BME280;16044;52.726;-2.108;2022-12-29T01:07:52;97846.16;;;7.93;87.20
28935;BME280;16044;52.726;-2.108;2022-12-29T01:10:18;97848.25;;;7.91;87.33
28935;BME280;16044;52.726;-2.108;2022-12-29T01:12:45;97844.38;;;7.87;87.16
28935;BME280;16044;52.726;-2.108;2022-12-29T01:15:14;97835.69;;;7.85;87.40
28935;BME280;16044;52.726;-2.108;2022-12-29T01:17:42;97844.69;;;7.79;87.30
28935;BME280;16044;52.726;-2.108;2022-12-29T01:20:09;97838.38;;;7.85;87.14
28935;BME280;16044;52.726;-2.108;2022-12-29T01:22:38;97836.50;;;7.86;87.16
28935;BME280;16044;52.726;-2.108;2022-12-29T01:25:05;97831.91;;;7.86;86.44
28935;BME280;16044;52.726;-2.108;2022-12-29T01:27:33;97842.72;;;7.86;86.76
28935;BME280;16044;52.726;-2.108;2022-12-29T01:29:59;97836.28;;;7.87;86.83
28935;BME280;16044;52.726;-2.108;2022-12-29T01:32:27;97840.00;;;7.86;86.75
28935;BME280;16044;52.726;-2.108;2022-12-29T01:34:53;97831.47;;;7.89;86.73
28935;BME280;16044;52.726;-2.108;2022-12-29T01:37:20;97836.88;;;7.89;86.51
28935;BME280;16044;52.726;-2.108;2022-12-29T01:39:47;97841.69;;;7.87;86.40
28935;BME280;16044;52.726;-2.108;2022-12-29T01:42:19;97835.69;;;7.85;86.67
28935;BME280;16044;52.726;-2.108;2022-12-29T01:45:02;97842.72;;;7.86;86.51
28935;BME280;16044;52.726;-2.108;2022-12-29T01:47:34;97834.41;;;7.88;86.85
28935;BME280;16044;52.726;-2.108;2022-12-29T01:50:26;97829.00;;;7.88;87.38
28935;BME280;16044;52.726;-2.108;2022-12-29T01:53:05;97826.09;;;7.89;87.34
28935;BME280;16044;52.726;-2.108;2022-12-29T01:55:57;97822.34;;;7.90;87.65
28935;BME280;16044;52.726;-2.108;2022-12-29T01:58:32;97812.00;;;7.87;87.72
28935;BME280;16044;52.726;-2.108;2022-12-29T02:01:01;97824.59;;;7.93;87.72
28935;BME280;16044;52.726;-2.108;2022-12-29T02:03:29;97814.28;;;7.90;87.79
28935;BME280;16044;52.726;-2.108;2022-12-29T02:06:03;97810.97;;;7.88;87.98
28935;BME280;16044;52.726;-2.108;2022-12-29T02:08:35;97813.28;;;7.85;88.32
28935;BME280;16044;52.726;-2.108;2022-12-29T02:11:02;97819.88;;;7.89;87.96
28935;BME280;16044;52.726;-2.108;2022-12-29T02:13:29;97819.28;;;7.87;88.84
28935;BME280;16044;52.726;-2.108;2022-12-29T02:24:41;97836.13;;;7.82;92.56
28935;BME280;16044;52.726;-2.108;2022-12-29T02:33:55;97842.13;;;7.66;95.64
28935;BME280;16044;52.726;-2.108;2022-12-29T02:39:28;97867.72;;;7.56;97.36
28935;BME280;16044;52.726;-2.108;2022-12-29T02:42:22;97878.31;;;7.51;98.29
28935;BME280;16044;52.726;-2.108;2022-12-29T02:45:22;97890.38;;;7.49;99.36
28935;BME280;16044;52.726;-2.108;2022-12-29T02:50:36;97931.91;;;7.41;98.98
28935;BME280;16044;52.726;-2.108;2022-12-29T02:53:15;97952.50;;;7.29;98.51
28935;BME280;16044;52.726;-2.108;2022-12-29T02:55:51;97966.41;;;7.26;98.15
28935;BME280;16044;52.726;-2.108;2022-12-29T02:58:20;97971.44;;;7.15;98.30
28935;BME280;16044;52.726;-2.108;2022-12-29T03:07:12;98001.19;;;6.95;97.15
28935;BME280;16044;52.726;-2.108;2022-12-29T03:09:59;98016.78;;;6.87;96.83
28935;BME280;16044;52.726;-2.108;2022-12-29T03:15:47;98029.84;;;6.76;95.74
28935;BME280;16044;52.726;-2.108;2022-12-29T03:18:34;98044.56;;;6.67;95.78
28935;BME280;16044;52.726;-2.108;2022-12-29T03:21:19;98055.78;;;6.57;95.74
28935;BME280;16044;52.726;-2.108;2022-12-29T03:24:17;98045.88;;;6.58;95.62
28935;BME280;16044;52.726;-2.108;2022-12-29T03:26:46;98054.97;;;6.57;95.65
28935;BME280;16044;52.726;-2.108;2022-12-29T03:29:15;98065.13;;;6.48;96.17
28935;BME280;16044;52.726;-2.108;2022-12-29T03:31:44;98068.66;;;6.49;95.83
28935;BME280;16044;52.726;-2.108;2022-12-29T03:34:13;98069.88;;;6.53;95.69
28935;BME280;16044;52.726;-2.108;2022-12-29T03:36:59;98065.53;;;6.52;95.45
28935;BME280;16044;52.726;-2.108;2022-12-29T03:39:28;98061.59;;;6.48;95.36
28935;BME280;16044;52.726;-2.108;2022-12-29T03:41:59;98072.41;;;6.41;95.88
28935;BME280;16044;52.726;-2.108;2022-12-29T03:44:35;98074.44;;;6.46;95.85
28935;BME280;16044;52.726;-2.108;2022-12-29T03:47:04;98075.50;;;6.38;96.13
28935;BME280;16044;52.726;-2.108;2022-12-29T03:49:33;98079.41;;;6.42;95.73
28935;BME280;16044;52.726;-2.108;2022-12-29T03:52:00;98081.06;;;6.36;95.79
28935;BME280;16044;52.726;-2.108;2022-12-29T03:54:27;98096.81;;;6.33;96.03
28935;BME280;16044;52.726;-2.108;2022-12-29T03:56:54;98100.13;;;6.28;95.98
28935;BME280;16044;52.726;-2.108;2022-12-29T03:59:21;98117.50;;;6.25;95.88
28935;BME280;16044;52.726;-2.108;2022-12-29T04:01:47;98120.00;;;6.20;95.71
28935;BME280;16044;52.726;-2.108;2022-12-29T04:04:14;98117.50;;;6.19;95.61
28935;BME280;16044;52.726;-2.108;2022-12-29T04:06:43;98136.13;;;6.07;96.25
28935;BME280;16044;52.726;-2.108;2022-12-29T04:09:10;98143.97;;;6.09;96.22
28935;BME280;16044;52.726;-2.108;2022-12-29T04:11:37;98148.94;;;6.12;96.31
28935;BME280;16044;52.726;-2.108;2022-12-29T04:14:04;98151.66;;;6.12;96.55
28935;BME280;16044;52.726;-2.108;2022-12-29T04:16:34;98154.75;;;6.15;96.38
28935;BME280;16044;52.726;-2.108;2022-12-29T04:19:02;98153.50;;;6.18;96.49
28935;BME280;16044;52.726;-2.108;2022-12-29T04:21:29;98168.00;;;6.17;96.84
28935;BME280;16044;52.726;-2.108;2022-12-29T04:23:56;98166.13;;;6.17;96.80
28935;BME280;16044;52.726;-2.108;2022-12-29T04:26:23;98175.03;;;6.24;96.73
28935;BME280;16044;52.726;-2.108;2022-12-29T04:28:49;98182.91;;;6.26;96.67
28935;BME280;16044;52.726;-2.108;2022-12-29T04:31:16;98187.25;;;6.27;96.64
28935;BME280;16044;52.726;-2.108;2022-12-29T04:33:44;98190.97;;;6.26;96.44
28935;BME280;16044;52.726;-2.108;2022-12-29T04:36:10;98199.44;;;6.23;96.08
28935;BME280;16044;52.726;-2.108;2022-12-29T04:38:37;98213.94;;;6.22;96.05
28935;BME280;16044;52.726;-2.108;2022-12-29T04:41:04;98214.34;;;6.19;96.21
28935;BME280;16044;52.726;-2.108;2022-12-29T04:43:31;98227.81;;;6.19;96.34
28935;BME280;16044;52.726;-2.108;2022-12-29T04:45:59;98222.81;;;6.16;96.63
28935;BME280;16044;52.726;-2.108;2022-12-29T04:48:26;98224.50;;;6.17;96.57
28935;BME280;16044;52.726;-2.108;2022-12-29T04:50:53;98238.53;;;6.05;96.45
28935;BME280;16044;52.726;-2.108;2022-12-29T04:53:20;98233.53;;;6.02;96.81
28935;BME280;16044;52.726;-2.108;2022-12-29T04:55:51;98235.66;;;6.07;96.43
28935;BME280;16044;52.726;-2.108;2022-12-29T04:58:21;98253.63;;;6.07;96.71
28935;BME280;16044;52.726;-2.108;2022-12-29T05:00:50;98250.31;;;6.04;96.78
28935;BME280;16044;52.726;-2.108;2022-12-29T05:03:17;98263.13;;;6.02;97.01
28935;BME280;16044;52.726;-2.108;2022-12-29T05:05:45;98259.59;;;5.95;97.56
28935;BME280;16044;52.726;-2.108;2022-12-29T05:08:12;98264.56;;;5.98;97.41
28935;BME280;16044;52.726;-2.108;2022-12-29T05:10:39;98266.78;;;5.95;97.30
28935;BME280;16044;52.726;-2.108;2022-12-29T05:13:06;98280.44;;;5.93;96.80
28935;BME280;16044;52.726;-2.108;2022-12-29T05:15:33;98276.09;;;5.92;96.93
28935;BME280;16044;52.726;-2.108;2022-12-29T05:18:00;98285.38;;;5.90;97.71
28935;BME280;16044;52.726;-2.108;2022-12-29T05:20:27;98295.75;;;5.93;97.53
28935;BME280;16044;52.726;-2.108;2022-12-29T05:22:54;98299.25;;;5.93;97.29
28935;BME280;16044;52.726;-2.108;2022-12-29T05:25:20;98305.94;;;5.97;97.33
28935;BME280;16044;52.726;-2.108;2022-12-29T05:27:47;98301.59;;;5.96;97.49
28935;BME280;16044;52.726;-2.108;2022-12-29T05:30:14;98302.81;;;5.94;97.15
28935;BME280;16044;52.726;-2.108;2022-12-29T05:32:41;98301.94;;;5.93;96.93
28935;BME280;16044;52.726;-2.108;2022-12-29T05:35:08;98305.25;;;5.89;96.78
28935;BME280;16044;52.726;-2.108;2022-12-29T05:37:35;98305.44;;;5.87;96.69
28935;BME280;16044;52.726;-2.108;2022-12-29T05:40:02;98309.81;;;5.88;96.68
28935;BME280;16044;52.726;-2.108;2022-12-29T05:42:30;98312.88;;;5.85;96.72
28935;BME280;16044;52.726;-2.108;2022-12-29T05:44:56;98312.69;;;5.86;96.24
28935;BME280;16044;52.726;-2.108;2022-12-29T05:47:23;98314.72;;;5.78;96.45
28935;BME280;16044;52.726;-2.108;2022-12-29T05:49:50;98324.25;;;5.87;95.87
28935;BME280;16044;52.726;-2.108;2022-12-29T05:52:18;98334.81;;;5.89;95.39
28935;BME280;16044;52.726;-2.108;2022-12-29T05:54:45;98334.16;;;5.80;95.83
28935;BME280;16044;52.726;-2.108;2022-12-29T05:57:11;98334.78;;;5.82;95.71
28935;BME280;16044;52.726;-2.108;2022-12-29T05:59:41;98336.66;;;5.81;95.62
28935;BME280;16044;52.726;-2.108;2022-12-29T06:02:09;98343.06;;;5.80;95.37
28935;BME280;16044;52.726;-2.108;2022-12-29T06:04:36;98351.72;;;5.76;95.45
28935;BME280;16044;52.726;-2.108;2022-12-29T06:07:03;98356.91;;;5.77;95.24
28935;BME280;16044;52.726;-2.108;2022-12-29T06:09:30;98362.84;;;5.73;95.48
28935;BME280;16044;52.726;-2.108;2022-12-29T06:11:56;98369.91;;;5.74;95.34
28935;BME280;16044;52.726;-2.108;2022-12-29T06:14:23;98366.78;;;5.70;95.42
28935;BME280;16044;52.726;-2.108;2022-12-29T06:16:50;98376.94;;;5.75;95.24
28935;BME280;16044;52.726;-2.108;2022-12-29T06:19:17;98370.50;;;5.69;95.55
28935;BME280;16044;52.726;-2.108;2022-12-29T06:21:44;98369.91;;;5.74;95.15
28935;BME280;16044;52.726;-2.108;2022-12-29T06:24:11;98362.22;;;5.71;95.22
28935;BME280;16044;52.726;-2.108;2022-12-29T06:26:38;98355.78;;;5.65;95.28
28935;BME280;16044;52.726;-2.108;2022-12-29T06:29:07;98365.13;;;5.69;95.37
28935;BME280;16044;52.726;-2.108;2022-12-29T06:31:34;98375.03;;;5.69;95.13
28935;BME280;16044;52.726;-2.108;2022-12-29T06:34:01;98375.81;;;5.62;95.63
28935;BME280;16044;52.726;-2.108;2022-12-29T06:36:34;98389.06;;;5.64;95.48
28935;BME280;16044;52.726;-2.108;2022-12-29T06:39:01;98392.38;;;5.66;95.24
28935;BME280;16044;52.726;-2.108;2022-12-29T06:41:28;98393.22;;;5.66;95.15
28935;BME280;16044;52.726;-2.108;2022-12-29T06:43:57;98394.28;;;5.72;94.71
28935;BME280;16044;52.726;-2.108;2022-12-29T06:46:24;98395.75;;;5.75;94.74
28935;BME280;16044;52.726;-2.108;2022-12-29T06:48:52;98404.69;;;5.82;94.32
28935;BME280;16044;52.726;-2.108;2022-12-29T06:51:18;98407.38;;;5.82;94.50
28935;BME280;16044;52.726;-2.108;2022-12-29T06:53:45;98409.28;;;5.88;94.13
28935;BME280;16044;52.726;-2.108;2022-12-29T06:56:12;98419.44;;;5.93;94.00
28935;BME280;16044;52.726;-2.108;2022-12-29T06:58:39;98429.66;;;5.97;94.09
28935;BME280;16044;52.726;-2.108;2022-12-29T07:01:06;98431.72;;;6.02;93.95
28935;BME280;16044;52.726;-2.108;2022-12-29T07:03:33;98428.66;;;6.05;94.08
28935;BME280;16044;52.726;-2.108;2022-12-29T07:06:00;98438.81;;;6.10;93.66
28935;BME280;16044;52.726;-2.108;2022-12-29T07:08:27;98444.81;;;6.12;93.52
28935;BME280;16044;52.726;-2.108;2022-12-29T07:10:53;98443.56;;;6.08;93.77
28935;BME280;16044;52.726;-2.108;2022-12-29T07:13:20;98451.81;;;6.06;93.55
28935;BME280;16044;52.726;-2.108;2022-12-29T07:15:47;98451.00;;;6.05;93.79
28935;BME280;16044;52.726;-2.108;2022-12-29T07:18:14;98460.72;;;6.07;93.48
28935;BME280;16044;52.726;-2.108;2022-12-29T07:20:42;98477.44;;;6.02;93.99
28935;BME280;16044;52.726;-2.108;2022-12-29T07:23:09;98473.34;;;6.06;94.04
28935;BME280;16044;52.726;-2.108;2022-12-29T07:25:36;98483.28;;;6.05;94.17
28935;BME280;16044;52.726;-2.108;2022-12-29T07:28:03;98484.28;;;6.04;94.47
28935;BME280;16044;52.726;-2.108;2022-12-29T07:30:30;98491.34;;;6.05;94.59
28935;BME280;16044;52.726;-2.108;2022-12-29T07:32:57;98501.69;;;6.09;94.24
28935;BME280;16044;52.726;-2.108;2022-12-29T07:35:24;98494.47;;;6.09;94.26
28935;BME280;16044;52.726;-2.108;2022-12-29T07:37:51;98506.31;;;6.15;94.21
28935;BME280;16044;52.726;-2.108;2022-12-29T07:40:18;98495.09;;;6.11;93.76
28935;BME280;16044;52.726;-2.108;2022-12-29T07:42:45;98501.94;;;6.14;92.91
28935;BME280;16044;52.726;-2.108;2022-12-29T07:45:12;98498.66;;;6.18;92.56
28935;BME280;16044;52.726;-2.108;2022-12-29T07:47:38;98503.59;;;6.15;92.49
28935;BME280;16044;52.726;-2.108;2022-12-29T07:50:06;98518.06;;;6.14;92.80
28935;BME280;16044;52.726;-2.108;2022-12-29T07:52:33;98519.75;;;6.15;93.36
28935;BME280;16044;52.726;-2.108;2022-12-29T07:54:59;98532.16;;;6.16;93.53
28935;BME280;16044;52.726;-2.108;2022-12-29T07:57:26;98539.47;;;6.22;93.72
28935;BME280;16044;52.726;-2.108;2022-12-29T07:59:58;98529.72;;;6.21;93.74
28935;BME280;16044;52.726;-2.108;2022-12-29T08:02:25;98549.69;;;6.33;93.21
28935;BME280;16044;52.726;-2.108;2022-12-29T08:04:53;98546.13;;;6.33;93.63
28935;BME280;16044;52.726;-2.108;2022-12-29T08:07:20;98561.47;;;6.39;92.78
28935;BME280;16044;52.726;-2.108;2022-12-29T08:09:47;98567.72;;;6.39;92.40
28935;BME280;16044;52.726;-2.108;2022-12-29T08:12:14;98568.72;;;6.38;92.27
28935;BME280;16044;52.726;-2.108;2022-12-29T08:14:41;98573.28;;;6.38;91.67
28935;BME280;16044;52.726;-2.108;2022-12-29T08:17:08;98573.91;;;6.33;91.33
28935;BME280;16044;52.726;-2.108;2022-12-29T08:19:37;98585.66;;;6.32;91.10
28935;BME280;16044;52.726;-2.108;2022-12-29T08:22:04;98591.22;;;6.24;91.50
28935;BME280;16044;52.726;-2.108;2022-12-29T08:24:31;98606.72;;;6.22;91.46
28935;BME280;16044;52.726;-2.108;2022-12-29T08:26:58;98604.03;;;6.22;91.65
28935;BME280;16044;52.726;-2.108;2022-12-29T08:29:34;98619.31;;;6.21;91.41
28935;BME280;16044;52.726;-2.108;2022-12-29T08:32:01;98612.84;;;6.16;91.55
28935;BME280;16044;52.726;-2.108;2022-12-29T08:34:28;98616.97;;;6.12;91.68
28935;BME280;16044;52.726;-2.108;2022-12-29T08:36:57;98611.31;;;6.07;91.69
28935;BME280;16044;52.726;-2.108;2022-12-29T08:39:23;98606.91;;;5.99;91.86
28935;BME280;16044;52.726;-2.108;2022-12-29T08:41:50;98622.22;;;5.98;91.86
28935;BME280;16044;52.726;-2.108;2022-12-29T08:44:17;98622.97;;;5.92;92.33
28935;BME280;16044;52.726;-2.108;2022-12-29T08:46:44;98640.53;;;5.88;92.59
28935;BME280;16044;52.726;-2.108;2022-12-29T08:49:11;98645.25;;;5.86;92.96
28935;BME280;16044;52.726;-2.108;2022-12-29T08:51:38;98647.22;;;5.77;92.76
28935;BME280;16044;52.726;-2.108;2022-12-29T08:54:05;98664.38;;;5.76;92.85
28935;BME280;16044;52.726;-2.108;2022-12-29T08:56:32;98662.91;;;5.74;92.73
28935;BME280;16044;52.726;-2.108;2022-12-29T08:58:59;98667.47;;;5.73;92.35
28935;BME280;16044;52.726;-2.108;2022-12-29T09:01:26;98670.06;;;5.66;92.56
28935;BME280;16044;52.726;-2.108;2022-12-29T09:03:53;98674.44;;;5.68;92.14
28935;BME280;16044;52.726;-2.108;2022-12-29T09:06:41;98666.72;;;5.64;91.73
28935;BME280;16044;52.726;-2.108;2022-12-29T09:09:08;98665.25;;;5.62;91.92
28935;BME280;16044;52.726;-2.108;2022-12-29T09:11:35;98676.19;;;5.60;91.93
28935;BME280;16044;52.726;-2.108;2022-12-29T09:14:03;98685.47;;;5.58;91.98
28935;BME280;16044;52.726;-2.108;2022-12-29T09:16:30;98681.75;;;5.59;91.85
28935;BME280;16044;52.726;-2.108;2022-12-29T09:18:57;98692.78;;;5.64;91.57
28935;BME280;16044;52.726;-2.108;2022-12-29T09:21:24;98697.97;;;5.65;91.56
28935;BME280;16044;52.726;-2.108;2022-12-29T09:23:52;98695.75;;;5.69;91.45
28935;BME280;16044;52.726;-2.108;2022-12-29T09:26:19;98699.72;;;5.73;91.46
28935;BME280;16044;52.726;-2.108;2022-12-29T09:28:45;98691.47;;;5.75;91.38
28935;BME280;16044;52.726;-2.108;2022-12-29T09:31:14;98691.53;;;5.81;90.93
28935;BME280;16044;52.726;-2.108;2022-12-29T09:33:41;98695.03;;;5.82;90.85
28935;BME280;16044;52.726;-2.108;2022-12-29T09:36:08;98703.75;;;5.84;91.10
28935;BME280;16044;52.726;-2.108;2022-12-29T09:38:35;98698.59;;;5.82;91.16
28935;BME280;16044;52.726;-2.108;2022-12-29T09:41:13;98697.34;;;5.85;90.90
28935;BME280;16044;52.726;-2.108;2022-12-29T09:43:48;98707.34;;;5.91;90.54
28935;BME280;16044;52.726;-2.108;2022-12-29T09:46:37;98705.69;;;5.90;90.51
28935;BME280;16044;52.726;-2.108;2022-12-29T09:52:25;98714.72;;;5.97;90.29
28935;BME280;16044;52.726;-2.108;2022-12-29T09:55:05;98717.91;;;6.08;90.62
28935;BME280;16044;52.726;-2.108;2022-12-29T09:57:55;98724.81;;;6.17;90.46
28935;BME280;16044;52.726;-2.108;2022-12-29T10:00:36;98718.47;;;6.24;89.35
28935;BME280;16044;52.726;-2.108;2022-12-29T10:03:17;98721.88;;;6.33;89.01
28935;BME280;16044;52.726;-2.108;2022-12-29T10:06:51;98723.63;;;6.41;88.72
28935;BME280;16044;52.726;-2.108;2022-12-29T10:09:34;98734.78;;;6.44;87.91
28935;BME280;16044;52.726;-2.108;2022-12-29T10:15:40;98741.34;;;6.57;87.53
28935;BME280;16044;52.726;-2.108;2022-12-29T10:23:52;98740.19;;;6.66;86.64
28935;BME280;16044;52.726;-2.108;2022-12-29T10:26:43;98756.19;;;6.74;85.70
28935;BME280;16044;52.726;-2.108;2022-12-29T10:29:18;98757.41;;;6.72;84.55
28935;BME280;16044;52.726;-2.108;2022-12-29T10:31:51;98763.00;;;6.70;83.46
28935;BME280;16044;52.726;-2.108;2022-12-29T10:34:47;98772.94;;;6.70;82.32
28935;BME280;16044;52.726;-2.108;2022-12-29T10:40:19;98776.00;;;6.67;83.29
28935;BME280;16044;52.726;-2.108;2022-12-29T10:43:36;98785.16;;;6.72;84.06
28935;BME280;16044;52.726;-2.108;2022-12-29T10:46:14;98777.78;;;6.81;83.85
28935;BME280;16044;52.726;-2.108;2022-12-29T10:48:44;98792.72;;;6.83;83.72
28935;BME280;16044;52.726;-2.108;2022-12-29T10:51:36;98789.00;;;6.85;82.51
28935;BME280;16044;52.726;-2.108;2022-12-29T10:54:27;98797.47;;;6.81;82.95
28935;BME280;16044;52.726;-2.108;2022-12-29T10:57:03;98796.47;;;6.82;82.89
28935;BME280;16044;52.726;-2.108;2022-12-29T10:59:36;98791.28;;;6.88;82.37
28935;BME280;16044;52.726;-2.108;2022-12-29T11:07:13;98799.34;;;6.81;83.47
28935;BME280;16044;52.726;-2.108;2022-12-29T11:09:50;98797.84;;;6.78;83.93
28935;BME280;16044;52.726;-2.108;2022-12-29T11:15:12;98796.56;;;6.96;82.99
28935;BME280;16044;52.726;-2.108;2022-12-29T11:17:47;98782.50;;;7.00;82.74
28935;BME280;16044;52.726;-2.108;2022-12-29T11:23:21;98780.25;;;7.04;82.64
28935;BME280;16044;52.726;-2.108;2022-12-29T11:28:43;98781.25;;;7.03;81.51
28935;BME280;16044;52.726;-2.108;2022-12-29T11:31:20;98789.16;;;7.05;80.96
28935;BME280;16044;52.726;-2.108;2022-12-29T11:33:48;98796.59;;;7.02;80.17
28935;BME280;16044;52.726;-2.108;2022-12-29T11:36:23;98787.88;;;7.00;79.51
28935;BME280;16044;52.726;-2.108;2022-12-29T11:38:53;98799.03;;;6.97;79.07
28935;BME280;16044;52.726;-2.108;2022-12-29T11:41:26;98783.72;;;6.98;78.83
28935;BME280;16044;52.726;-2.108;2022-12-29T11:44:00;98790.91;;;6.91;79.68
28935;BME280;16044;52.726;-2.108;2022-12-29T11:46:32;98781.16;;;6.90;80.19
28935;BME280;16044;52.726;-2.108;2022-12-29T11:49:02;98790.91;;;6.91;80.38
28935;BME280;16044;52.726;-2.108;2022-12-29T11:51:43;98773.72;;;6.92;80.82
28935;BME280;16044;52.726;-2.108;2022-12-29T11:54:35;98772.91;;;6.91;80.40
28935;BME280;16044;52.726;-2.108;2022-12-29T11:57:13;98782.06;;;6.97;81.06
28935;BME280;16044;52.726;-2.108;2022-12-29T11:59:49;98777.94;;;7.01;80.57
28935;BME280;16044;52.726;-2.108;2022-12-29T12:05:01;98775.41;;;6.93;81.44
28935;BME280;16044;52.726;-2.108;2022-12-29T12:07:44;98780.84;;;6.99;80.85
28935;BME280;16044;52.726;-2.108;2022-12-29T12:10:23;98784.19;;;7.01;80.67
28935;BME280;16044;52.726;-2.108;2022-12-29T12:13:01;98782.34;;;7.09;81.00
28935;BME280;16044;52.726;-2.108;2022-12-29T12:15:36;98785.09;;;7.15;80.28
28935;BME280;16044;52.726;-2.108;2022-12-29T12:19:03;98789.84;;;7.13;80.14
28935;BME280;16044;52.726;-2.108;2022-12-29T12:22:00;98797.94;;;7.13;80.13
28935;BME280;16044;52.726;-2.108;2022-12-29T12:30:36;98805.06;;;7.28;79.76
28935;BME280;16044;52.726;-2.108;2022-12-29T12:56:27;98799.91;;;7.26;79.17
28935;BME280;16044;52.726;-2.108;2022-12-29T13:02:32;98795.84;;;7.44;78.57
28935;BME280;16044;52.726;-2.108;2022-12-29T13:11:17;98800.97;;;7.32;78.08
28935;BME280;16044;52.726;-2.108;2022-12-29T13:14:23;98803.88;;;7.37;78.19
28935;BME280;16044;52.726;-2.108;2022-12-29T13:17:05;98798.50;;;7.37;78.23
28935;BME280;16044;52.726;-2.108;2022-12-29T13:19:57;98802.63;;;7.33;77.46
28935;BME280;16044;52.726;-2.108;2022-12-29T13:26:18;98831.72;;;7.44;76.22
28935;BME280;16044;52.726;-2.108;2022-12-29T13:29:06;98826.53;;;7.42;76.62
28935;BME280;16044;52.726;-2.108;2022-12-29T13:35:06;98830.06;;;7.43;75.33
28935;BME280;16044;52.726;-2.108;2022-12-29T13:38:07;98833.97;;;7.40;75.59
28935;BME280;16044;52.726;-2.108;2022-12-29T13:40:41;98846.25;;;7.43;76.05
28935;BME280;16044;52.726;-2.108;2022-12-29T13:43:12;98853.28;;;7.44;75.96
28935;BME280;16044;52.726;-2.108;2022-12-29T13:45:42;98850.84;;;7.49;76.02
28935;BME280;16044;52.726;-2.108;2022-12-29T13:48:22;98856.63;;;7.46;76.71
28935;BME280;16044;52.726;-2.108;2022-12-29T13:50:54;98872.78;;;7.46;76.85
28935;BME280;16044;52.726;-2.108;2022-12-29T13:56:12;98862.66;;;7.48;76.52
28935;BME280;16044;52.726;-2.108;2022-12-29T14:01:39;98864.72;;;7.46;76.38
28935;BME280;16044;52.726;-2.108;2022-12-29T14:04:24;98875.31;;;7.48;75.38
28935;BME280;16044;52.726;-2.108;2022-12-29T14:07:02;98872.94;;;7.38;76.00
28935;BME280;16044;52.726;-2.108;2022-12-29T14:09:41;98872.75;;;7.39;76.52
28935;BME280;16044;52.726;-2.108;2022-12-29T14:15:15;98881.38;;;7.28;77.21
28935;BME280;16044;52.726;-2.108;2022-12-29T14:18:23;98891.75;;;7.31;77.08
28935;BME280;16044;52.726;-2.108;2022-12-29T14:21:10;98896.69;;;7.28;77.28
28935;BME280;16044;52.726;-2.108;2022-12-29T14:23:47;98893.19;;;7.27;77.27
28935;BME280;16044;52.726;-2.108;2022-12-29T14:29:41;98907.88;;;7.25;78.14
28935;BME280;16044;52.726;-2.108;2022-12-29T14:34:48;98913.28;;;7.25;77.73
28935;BME280;16044;52.726;-2.108;2022-12-29T14:40:24;98916.69;;;7.12;77.08
28935;BME280;16044;52.726;-2.108;2022-12-29T14:42:56;98912.72;;;7.08;77.35
28935;BME280;16044;52.726;-2.108;2022-12-29T14:45:29;98923.41;;;7.01;78.35
28935;BME280;16044;52.726;-2.108;2022-12-29T14:47:57;98920.59;;;7.09;77.95
28935;BME280;16044;52.726;-2.108;2022-12-29T14:50:36;98938.81;;;7.07;78.08
28935;BME280;16044;52.726;-2.108;2022-12-29T14:53:06;98939.06;;;7.12;77.61
28935;BME280;16044;52.726;-2.108;2022-12-29T14:56:16;98951.69;;;7.12;77.87
28935;BME280;16044;52.726;-2.108;2022-12-29T14:58:48;98944.72;;;7.17;76.73
28935;BME280;16044;52.726;-2.108;2022-12-29T15:01:26;98941.19;;;7.17;76.49
28935;BME280;16044;52.726;-2.108;2022-12-29T15:03:54;98948.81;;;7.13;75.69
28935;BME280;16044;52.726;-2.108;2022-12-29T15:06:28;98960.63;;;7.12;74.92
28935;BME280;16044;52.726;-2.108;2022-12-29T15:09:03;98964.53;;;7.10;74.03
28935;BME280;16044;52.726;-2.108;2022-12-29T15:14:03;98985.75;;;6.98;74.88
28935;BME280;16044;52.726;-2.108;2022-12-29T15:16:32;98986.13;;;6.95;75.17
28935;BME280;16044;52.726;-2.108;2022-12-29T15:19:02;98987.09;;;6.87;75.45
28935;BME280;16044;52.726;-2.108;2022-12-29T15:21:36;98986.34;;;6.78;75.62
28935;BME280;16044;52.726;-2.108;2022-12-29T15:24:03;98993.16;;;6.74;75.52
28935;BME280;16044;52.726;-2.108;2022-12-29T15:26:38;99006.72;;;6.66;76.04
28935;BME280;16044;52.726;-2.108;2022-12-29T15:32:19;99015.28;;;6.55;76.73
28935;BME280;16044;52.726;-2.108;2022-12-29T15:34:49;99014.91;;;6.58;76.83
28935;BME280;16044;52.726;-2.108;2022-12-29T15:37:24;99021.47;;;6.55;77.12
28935;BME280;16044;52.726;-2.108;2022-12-29T15:39:53;99033.94;;;6.56;76.54